Fruitland, NM (87416)

6:26 PM MDT on August 04, 2015 (GMT -0600)
Four Corners Regional | | Change Station
CLOSE
Current Station
Airport
Location: Farmington,
Elevation: 5502 ft
Nearby Weather Stations

Elev 5502 ft 36.74 °N, 108.23 °W | Updated 33 minutes ago

Clear
Clear
90 °F
Feels Like 90 °F
N
10
Wind Variable Wind from WNW
Gusts 18 mph

Today
High -- | Low -- °F
--% Chance of Precip.
Yesterday
High -- | Low -- °F
Precip. -- in
6:21 AM 8:17 PM
Waning Gibbous, 73% visible
Pressure 29.92 in
Visibility 10.0 miles
Clouds Scattered Clouds 11000 ft
Dew Point 38 °F
Humidity 16%
Rainfall 0.00 in
Snow Depth Not available.
UV 2 out of 12
Pollen 5.50 out of 12
Air Quality Not available.
Flu Activity Not available.
METAR KFMN 042353Z 30009G16KT 10SM SCT110 32/03 A3012 RMK AO2 SLP130 T03220033 10339 20278 56012

More Conditions Fewer Conditions

Pressure 29.92 in
Visibility 10.0 miles
Clouds Scattered Clouds 11000 ft
Dew Point 38 °F
Humidity 16%
Rainfall 0.00 in
Snow Depth Not available.
UV 2 out of 12
Pollen 5.50 out of 12
Air Quality Not available.
Flu Activity Not available.
METAR KFMN 042353Z 30009G16KT 10SM SCT110 32/03 A3012 RMK AO2 SLP130 T03220033 10339 20278 56012

More Conditions Fewer Conditions

10-Day Weather Forecast

×

Almanac

Astronomy

Aug. 04, 2015 Rise Set
Actual Time
Civil Twilight
Nautical Twilight
Astronomical Twilight
Moon
Length of Visible Light
Length of Day
Tomorrow will be .
, % of the Moon is Illuminated

Today's Extremes

State Highs State Lows

Community

WunderPhotos

Upload Photos

1,844,033 photos uploaded!

WunderBlogs® & News

Nearby

Air Quality

  Air Quality AQ Index Pollutant
Not available.

Snow Depth

Station Depth Elevation

Earthquake Activity

City Distance Mag. Time & Date
Minimum magnitude displayed is 2.5.

Coastal Water Temperatures

Place Temperature

Stations

Nearby Weather Stations

Station Location Temp. Windchill Dew Point Humidity Wind Precip. Elev Updated Type